sensor_id;sensor_type;location;lat;lon;timestamp;P1;durP1;ratioP1;P2;durP2;ratioP2
3095;SDS011;1558;42.700;23.360;2023-02-01T08:21:12;7.57;;;5.03;;
3095;SDS011;1558;42.700;23.360;2023-02-01T08:23:41;6.20;;;4.67;;
3095;SDS011;1558;42.700;23.360;2023-02-01T08:26:10;5.63;;;4.90;;
3095;SDS011;1558;42.700;23.360;2023-02-01T08:28:41;6.07;;;4.80;;
3095;SDS011;1558;42.700;23.360;2023-02-01T08:31:11;6.63;;;4.10;;
3095;SDS011;1558;42.700;23.360;2023-02-01T08:33:41;8.17;;;5.03;;
3095;SDS011;1558;42.700;23.360;2023-02-01T08:36:12;10.30;;;4.73;;
3095;SDS011;1558;42.700;23.360;2023-02-01T08:38:40;5.80;;;4.60;;
3095;SDS011;1558;42.700;23.360;2023-02-01T08:41:09;5.60;;;5.00;;
3095;SDS011;1558;42.700;23.360;2023-02-01T08:43:39;5.90;;;5.03;;
3095;SDS011;1558;42.700;23.360;2023-02-01T08:46:08;5.90;;;4.33;;
3095;SDS011;1558;42.700;23.360;2023-02-01T08:48:36;6.80;;;4.90;;
3095;SDS011;1558;42.700;23.360;2023-02-01T08:51:05;10.20;;;4.87;;
3095;SDS011;1558;42.700;23.360;2023-02-01T08:53:35;6.83;;;4.23;;
3095;SDS011;1558;42.700;23.360;2023-02-01T08:56:05;6.50;;;4.70;;
3095;SDS011;1558;42.700;23.360;2023-02-01T08:58:33;10.90;;;4.93;;
3095;SDS011;1558;42.700;23.360;2023-02-01T09:01:02;6.40;;;4.80;;
3095;SDS011;1558;42.700;23.360;2023-02-01T09:03:33;5.57;;;4.53;;
3095;SDS011;1558;42.700;23.360;2023-02-01T09:06:02;6.20;;;4.53;;
3095;SDS011;1558;42.700;23.360;2023-02-01T09:08:31;9.50;;;4.93;;
3095;SDS011;1558;42.700;23.360;2023-02-01T09:11:02;8.10;;;5.20;;
3095;SDS011;1558;42.700;23.360;2023-02-01T09:13:31;7.17;;;5.20;;
3095;SDS011;1558;42.700;23.360;2023-02-01T09:16:00;7.17;;;5.93;;
3095;SDS011;1558;42.700;23.360;2023-02-01T09:18:27;5.23;;;4.63;;
3095;SDS011;1558;42.700;23.360;2023-02-01T09:20:56;6.30;;;4.40;;
3095;SDS011;1558;42.700;23.360;2023-02-01T09:23:24;6.07;;;4.70;;
3095;SDS011;1558;42.700;23.360;2023-02-01T09:25:52;7.67;;;4.80;;
3095;SDS011;1558;42.700;23.360;2023-02-01T09:28:21;8.03;;;5.30;;
3095;SDS011;1558;42.700;23.360;2023-02-01T09:30:49;7.90;;;4.40;;
3095;SDS011;1558;42.700;23.360;2023-02-01T09:33:17;6.67;;;4.50;;
3095;SDS011;1558;42.700;23.360;2023-02-01T09:35:47;5.83;;;4.20;;
3095;SDS011;1558;42.700;23.360;2023-02-01T09:38:15;6.23;;;5.13;;
3095;SDS011;1558;42.700;23.360;2023-02-01T09:40:45;8.63;;;5.93;;
3095;SDS011;1558;42.700;23.360;2023-02-01T09:43:17;4.43;;;4.03;;
3095;SDS011;1558;42.700;23.360;2023-02-01T09:45:55;4.47;;;4.07;;
3095;SDS011;1558;42.700;23.360;2023-02-01T09:48:31;13.07;;;5.10;;
3095;SDS011;1558;42.700;23.360;2023-02-01T09:51:02;6.53;;;5.33;;
3095;SDS011;1558;42.700;23.360;2023-02-01T09:53:34;5.90;;;5.30;;
3095;SDS011;1558;42.700;23.360;2023-02-01T09:56:06;5.80;;;5.30;;
3095;SDS011;1558;42.700;23.360;2023-02-01T09:58:42;5.60;;;4.50;;
3095;SDS011;1558;42.700;23.360;2023-02-01T10:01:19;7.47;;;5.13;;
3095;SDS011;1558;42.700;23.360;2023-02-01T10:03:48;6.20;;;5.53;;
3095;SDS011;1558;42.700;23.360;2023-02-01T10:06:24;7.33;;;5.40;;
3095;SDS011;1558;42.700;23.360;2023-02-01T10:09:07;5.93;;;4.63;;
3095;SDS011;1558;42.700;23.360;2023-02-01T10:11:46;8.83;;;5.30;;
3095;SDS011;1558;42.700;23.360;2023-02-01T10:14:35;8.97;;;5.13;;
3095;SDS011;1558;42.700;23.360;2023-02-01T10:17:13;12.83;;;5.57;;
3095;SDS011;1558;42.700;23.360;2023-02-01T10:19:55;7.87;;;5.40;;
3095;SDS011;1558;42.700;23.360;2023-02-01T10:22:33;6.60;;;4.87;;
3095;SDS011;1558;42.700;23.360;2023-02-01T10:25:29;6.57;;;5.60;;
3095;SDS011;1558;42.700;23.360;2023-02-01T10:28:03;5.23;;;3.33;;
3095;SDS011;1558;42.700;23.360;2023-02-01T10:30:33;5.97;;;3.50;;
3095;SDS011;1558;42.700;23.360;2023-02-01T10:33:14;4.10;;;3.27;;
3095;SDS011;1558;42.700;23.360;2023-02-01T10:35:45;5.53;;;3.90;;
3095;SDS011;1558;42.700;23.360;2023-02-01T10:38:16;5.23;;;3.90;;
3095;SDS011;1558;42.700;23.360;2023-02-01T10:40:52;5.30;;;3.80;;
3095;SDS011;1558;42.700;23.360;2023-02-01T10:43:22;8.50;;;3.63;;
3095;SDS011;1558;42.700;23.360;2023-02-01T10:45:51;8.30;;;3.83;;
3095;SDS011;1558;42.700;23.360;2023-02-01T10:48:19;4.70;;;3.57;;
3095;SDS011;1558;42.700;23.360;2023-02-01T10:50:49;6.60;;;3.40;;
3095;SDS011;1558;42.700;23.360;2023-02-01T10:53:24;4.00;;;2.93;;
3095;SDS011;1558;42.700;23.360;2023-02-01T10:55:57;4.17;;;3.30;;
3095;SDS011;1558;42.700;23.360;2023-02-01T10:58:26;9.93;;;3.70;;
3095;SDS011;1558;42.700;23.360;2023-02-01T11:00:59;7.23;;;3.40;;
3095;SDS011;1558;42.700;23.360;2023-02-01T11:06:22;6.73;;;4.97;;
3095;SDS011;1558;42.700;23.360;2023-02-01T11:08:55;6.27;;;3.83;;
3095;SDS011;1558;42.700;23.360;2023-02-01T11:11:24;10.50;;;4.93;;
3095;SDS011;1558;42.700;23.360;2023-02-01T11:13:54;6.17;;;3.03;;
3095;SDS011;1558;42.700;23.360;2023-02-01T11:16:29;4.83;;;3.33;;
3095;SDS011;1558;42.700;23.360;2023-02-01T11:19:01;6.73;;;4.10;;
3095;SDS011;1558;42.700;23.360;2023-02-01T11:21:29;8.83;;;3.50;;
3095;SDS011;1558;42.700;23.360;2023-02-01T11:24:00;7.67;;;3.17;;
3095;SDS011;1558;42.700;23.360;2023-02-01T11:26:30;6.13;;;2.77;;
3095;SDS011;1558;42.700;23.360;2023-02-01T11:29:01;6.07;;;3.00;;
3095;SDS011;1558;42.700;23.360;2023-02-01T11:31:32;6.10;;;3.33;;
3095;SDS011;1558;42.700;23.360;2023-02-01T11:34:05;7.60;;;4.30;;
3095;SDS011;1558;42.700;23.360;2023-02-01T11:36:35;3.97;;;2.70;;
3095;SDS011;1558;42.700;23.360;2023-02-01T11:39:08;7.23;;;3.20;;
3095;SDS011;1558;42.700;23.360;2023-02-01T11:41:55;4.57;;;2.63;;
3095;SDS011;1558;42.700;23.360;2023-02-01T11:44:29;3.50;;;2.80;;
3095;SDS011;1558;42.700;23.360;2023-02-01T11:49:52;5.47;;;3.00;;
3095;SDS011;1558;42.700;23.360;2023-02-01T11:52:29;4.13;;;3.00;;
3095;SDS011;1558;42.700;23.360;2023-02-01T11:55:15;4.83;;;2.50;;
3095;SDS011;1558;42.700;23.360;2023-02-01T11:57:56;7.77;;;3.30;;
3095;SDS011;1558;42.700;23.360;2023-02-01T12:00:40;5.33;;;2.60;;
3095;SDS011;1558;42.700;23.360;2023-02-01T12:06:47;4.13;;;2.33;;
3095;SDS011;1558;42.700;23.360;2023-02-01T12:12:19;4.67;;;3.03;;
3095;SDS011;1558;42.700;23.360;2023-02-01T12:14:56;5.83;;;3.43;;
3095;SDS011;1558;42.700;23.360;2023-02-01T12:17:41;3.53;;;3.10;;
3095;SDS011;1558;42.700;23.360;2023-02-01T12:23:16;9.87;;;4.20;;
3095;SDS011;1558;42.700;23.360;2023-02-01T12:25:57;6.07;;;3.13;;
3095;SDS011;1558;42.700;23.360;2023-02-01T12:28:38;4.60;;;3.23;;
3095;SDS011;1558;42.700;23.360;2023-02-01T12:31:28;4.20;;;2.83;;
3095;SDS011;1558;42.700;23.360;2023-02-01T12:34:11;5.63;;;2.70;;
3095;SDS011;1558;42.700;23.360;2023-02-01T12:36:54;5.03;;;2.37;;
3095;SDS011;1558;42.700;23.360;2023-02-01T12:39:31;4.03;;;2.60;;
3095;SDS011;1558;42.700;23.360;2023-02-01T12:42:01;5.40;;;2.60;;
3095;SDS011;1558;42.700;23.360;2023-02-01T12:44:39;2.77;;;2.37;;
3095;SDS011;1558;42.700;23.360;2023-02-01T12:47:13;2.93;;;2.50;;
3095;SDS011;1558;42.700;23.360;2023-02-01T12:49:47;3.07;;;2.70;;
3095;SDS011;1558;42.700;23.360;2023-02-01T12:52:28;6.10;;;2.70;;
3095;SDS011;1558;42.700;23.360;2023-02-01T12:55:05;7.13;;;2.53;;
3095;SDS011;1558;42.700;23.360;2023-02-01T12:58:01;3.07;;;2.50;;
3095;SDS011;1558;42.700;23.360;2023-02-01T13:00:35;2.50;;;2.20;;
3095;SDS011;1558;42.700;23.360;2023-02-01T13:03:13;5.43;;;2.40;;
3095;SDS011;1558;42.700;23.360;2023-02-01T13:05:51;3.47;;;2.50;;
3095;SDS011;1558;42.700;23.360;2023-02-01T13:08:25;4.00;;;2.80;;
3095;SDS011;1558;42.700;23.360;2023-02-01T13:10:59;8.60;;;2.50;;
3095;SDS011;1558;42.700;23.360;2023-02-01T13:13:32;3.87;;;2.10;;
3095;SDS011;1558;42.700;23.360;2023-02-01T13:16:07;4.40;;;2.33;;
3095;SDS011;1558;42.700;23.360;2023-02-01T13:18:46;4.13;;;2.67;;
3095;SDS011;1558;42.700;23.360;2023-02-01T13:21:19;6.07;;;3.33;;
3095;SDS011;1558;42.700;23.360;2023-02-01T13:23:53;4.23;;;2.70;;
3095;SDS011;1558;42.700;23.360;2023-02-01T13:26:21;3.70;;;2.60;;
3095;SDS011;1558;42.700;23.360;2023-02-01T13:28:50;4.20;;;2.70;;
3095;SDS011;1558;42.700;23.360;2023-02-01T13:31:28;3.33;;;2.60;;
3095;SDS011;1558;42.700;23.360;2023-02-01T13:40:13;3.50;;;2.23;;
3095;SDS011;1558;42.700;23.360;2023-02-01T13:42:51;6.90;;;2.93;;
3095;SDS011;1558;42.700;23.360;2023-02-01T13:45:22;3.00;;;2.50;;
3095;SDS011;1558;42.700;23.360;2023-02-01T13:47:53;2.53;;;1.93;;
3095;SDS011;1558;42.700;23.360;2023-02-01T13:50:24;3.40;;;2.47;;
3095;SDS011;1558;42.700;23.360;2023-02-01T13:52:55;4.33;;;2.63;;
3095;SDS011;1558;42.700;23.360;2023-02-01T13:55:28;4.53;;;2.57;;
3095;SDS011;1558;42.700;23.360;2023-02-01T13:58:00;3.73;;;2.93;;
3095;SDS011;1558;42.700;23.360;2023-02-01T14:00:31;6.20;;;3.70;;
3095;SDS011;1558;42.700;23.360;2023-02-01T14:05:59;4.27;;;2.83;;
3095;SDS011;1558;42.700;23.360;2023-02-01T14:08:43;3.53;;;2.87;;
3095;SDS011;1558;42.700;23.360;2023-02-01T14:23:16;5.27;;;3.20;;
3095;SDS011;1558;42.700;23.360;2023-02-01T14:26:01;5.03;;;3.13;;
3095;SDS011;1558;42.700;23.360;2023-02-01T14:28:36;5.17;;;3.10;;
3095;SDS011;1558;42.700;23.360;2023-02-01T14:31:14;5.43;;;2.90;;
3095;SDS011;1558;42.700;23.360;2023-02-01T14:34:00;3.23;;;2.90;;
3095;SDS011;1558;42.700;23.360;2023-02-01T14:36:39;5.03;;;2.83;;
3095;SDS011;1558;42.700;23.360;2023-02-01T14:39:25;3.93;;;2.70;;
3095;SDS011;1558;42.700;23.360;2023-02-01T14:41:57;3.47;;;2.73;;
3095;SDS011;1558;42.700;23.360;2023-02-01T14:44:31;4.10;;;2.67;;
3095;SDS011;1558;42.700;23.360;2023-02-01T14:47:03;4.13;;;2.77;;
3095;SDS011;1558;42.700;23.360;2023-02-01T14:49:49;8.67;;;4.57;;
3095;SDS011;1558;42.700;23.360;2023-02-01T14:52:23;5.10;;;4.37;;
3095;SDS011;1558;42.700;23.360;2023-02-01T14:55:01;5.83;;;4.33;;
3095;SDS011;1558;42.700;23.360;2023-02-01T14:57:36;7.47;;;4.23;;
3095;SDS011;1558;42.700;23.360;2023-02-01T15:00:14;5.13;;;4.73;;
3095;SDS011;1558;42.700;23.360;2023-02-01T15:02:47;6.57;;;3.77;;
3095;SDS011;1558;42.700;23.360;2023-02-01T15:05:25;3.90;;;3.60;;
3095;SDS011;1558;42.700;23.360;2023-02-01T15:07:57;7.13;;;4.03;;
3095;SDS011;1558;42.700;23.360;2023-02-01T15:10:30;5.30;;;4.80;;
3095;SDS011;1558;42.700;23.360;2023-02-01T15:13:01;6.10;;;4.40;;
3095;SDS011;1558;42.700;23.360;2023-02-01T15:15:30;7.27;;;4.57;;
3095;SDS011;1558;42.700;23.360;2023-02-01T15:18:03;4.97;;;4.50;;
3095;SDS011;1558;42.700;23.360;2023-02-01T15:20:31;5.20;;;4.77;;
3095;SDS011;1558;42.700;23.360;2023-02-01T15:23:01;5.60;;;5.00;;
3095;SDS011;1558;42.700;23.360;2023-02-01T15:25:32;7.50;;;4.60;;
3095;SDS011;1558;42.700;23.360;2023-02-01T15:28:02;5.67;;;4.87;;
3095;SDS011;1558;42.700;23.360;2023-02-01T15:30:34;8.47;;;5.30;;
3095;SDS011;1558;42.700;23.360;2023-02-01T15:33:04;7.93;;;5.60;;
3095;SDS011;1558;42.700;23.360;2023-02-01T15:35:38;6.70;;;4.90;;
3095;SDS011;1558;42.700;23.360;2023-02-01T15:38:18;9.40;;;5.47;;
3095;SDS011;1558;42.700;23.360;2023-02-01T15:40:53;9.27;;;5.37;;
3095;SDS011;1558;42.700;23.360;2023-02-01T15:43:23;8.67;;;5.20;;
3095;SDS011;1558;42.700;23.360;2023-02-01T15:45:56;6.60;;;5.87;;
3095;SDS011;1558;42.700;23.360;2023-02-01T15:48:26;8.07;;;6.20;;
3095;SDS011;1558;42.700;23.360;2023-02-01T15:50:56;8.00;;;6.17;;
3095;SDS011;1558;42.700;23.360;2023-02-01T15:53:25;7.17;;;6.33;;
3095;SDS011;1558;42.700;23.360;2023-02-01T15:55:58;12.03;;;6.47;;
3095;SDS011;1558;42.700;23.360;2023-02-01T15:58:28;11.27;;;6.20;;
3095;SDS011;1558;42.700;23.360;2023-02-01T16:00:59;9.03;;;6.53;;
3095;SDS011;1558;42.700;23.360;2023-02-01T16:03:34;9.87;;;7.53;;
3095;SDS011;1558;42.700;23.360;2023-02-01T16:06:05;12.40;;;7.13;;
3095;SDS011;1558;42.700;23.360;2023-02-01T16:08:35;14.83;;;7.50;;
3095;SDS011;1558;42.700;23.360;2023-02-01T16:11:14;8.83;;;7.30;;
3095;SDS011;1558;42.700;23.360;2023-02-01T16:13:49;7.80;;;6.87;;
3095;SDS011;1558;42.700;23.360;2023-02-01T16:16:19;9.33;;;7.20;;
3095;SDS011;1558;42.700;23.360;2023-02-01T16:18:47;8.47;;;6.33;;
3095;SDS011;1558;42.700;23.360;2023-02-01T16:21:15;10.60;;;6.67;;
3095;SDS011;1558;42.700;23.360;2023-02-01T16:23:43;8.80;;;6.87;;
3095;SDS011;1558;42.700;23.360;2023-02-01T16:26:12;7.10;;;6.23;;
3095;SDS011;1558;42.700;23.360;2023-02-01T16:28:40;7.77;;;6.47;;
3095;SDS011;1558;42.700;23.360;2023-02-01T16:31:10;7.83;;;5.43;;
3095;SDS011;1558;42.700;23.360;2023-02-01T16:33:59;9.47;;;6.07;;
3095;SDS011;1558;42.700;23.360;2023-02-01T16:36:43;12.27;;;5.67;;
3095;SDS011;1558;42.700;23.360;2023-02-01T16:39:19;7.87;;;5.50;;
3095;SDS011;1558;42.700;23.360;2023-02-01T16:41:52;7.73;;;5.97;;
3095;SDS011;1558;42.700;23.360;2023-02-01T16:44:22;8.37;;;6.73;;
3095;SDS011;1558;42.700;23.360;2023-02-01T16:46:58;10.30;;;6.53;;
3095;SDS011;1558;42.700;23.360;2023-02-01T16:49:44;10.03;;;7.50;;
3095;SDS011;1558;42.700;23.360;2023-02-01T16:52:22;9.47;;;7.40;;
3095;SDS011;1558;42.700;23.360;2023-02-01T16:54:55;9.17;;;8.23;;
3095;SDS011;1558;42.700;23.360;2023-02-01T16:57:28;12.37;;;9.17;;
3095;SDS011;1558;42.700;23.360;2023-02-01T16:59:57;14.43;;;9.93;;
3095;SDS011;1558;42.700;23.360;2023-02-01T17:02:43;9.53;;;7.60;;
3095;SDS011;1558;42.700;23.360;2023-02-01T17:05:19;8.73;;;7.83;;
3095;SDS011;1558;42.700;23.360;2023-02-01T17:07:50;7.63;;;6.83;;
3095;SDS011;1558;42.700;23.360;2023-02-01T17:10:25;9.33;;;6.23;;
3095;SDS011;1558;42.700;23.360;2023-02-01T17:12:59;9.20;;;6.77;;
3095;SDS011;1558;42.700;23.360;2023-02-01T17:15:29;9.00;;;7.00;;
3095;SDS011;1558;42.700;23.360;2023-02-01T17:18:02;10.37;;;8.77;;
3095;SDS011;1558;42.700;23.360;2023-02-01T17:20:32;12.30;;;8.70;;
3095;SDS011;1558;42.700;23.360;2023-02-01T17:23:01;14.33;;;9.43;;
3095;SDS011;1558;42.700;23.360;2023-02-01T17:25:30;12.50;;;7.60;;
3095;SDS011;1558;42.700;23.360;2023-02-01T17:27:58;11.87;;;9.23;;
3095;SDS011;1558;42.700;23.360;2023-02-01T17:30:26;13.87;;;9.03;;
3095;SDS011;1558;42.700;23.360;2023-02-01T17:32:56;12.27;;;9.33;;
3095;SDS011;1558;42.700;23.360;2023-02-01T17:35:32;13.37;;;9.43;;
3095;SDS011;1558;42.700;23.360;2023-02-01T17:38:00;12.53;;;8.80;;
3095;SDS011;1558;42.700;23.360;2023-02-01T17:40:28;12.23;;;9.03;;
3095;SDS011;1558;42.700;23.360;2023-02-01T17:42:56;11.80;;;8.83;;
3095;SDS011;1558;42.700;23.360;2023-02-01T17:45:32;12.33;;;8.03;;
3095;SDS011;1558;42.700;23.360;2023-02-01T17:48:03;11.90;;;8.90;;
3095;SDS011;1558;42.700;23.360;2023-02-01T17:50:33;13.80;;;9.43;;
3095;SDS011;1558;42.700;23.360;2023-02-01T17:53:03;12.97;;;9.27;;
3095;SDS011;1558;42.700;23.360;2023-02-01T17:55:36;12.90;;;10.83;;
3095;SDS011;1558;42.700;23.360;2023-02-01T17:58:07;10.50;;;8.23;;
3095;SDS011;1558;42.700;23.360;2023-02-01T18:00:38;11.13;;;9.60;;
3095;SDS011;1558;42.700;23.360;2023-02-01T18:03:06;11.17;;;8.50;;
3095;SDS011;1558;42.700;23.360;2023-02-01T18:05:42;11.87;;;10.07;;
3095;SDS011;1558;42.700;23.360;2023-02-01T18:08:16;20.40;;;14.37;;
3095;SDS011;1558;42.700;23.360;2023-02-01T18:10:47;16.73;;;14.23;;
3095;SDS011;1558;42.700;23.360;2023-02-01T18:13:17;21.10;;;15.47;;
3095;SDS011;1558;42.700;23.360;2023-02-01T18:15:45;21.70;;;14.23;;
3095;SDS011;1558;42.700;23.360;2023-02-01T18:18:13;18.33;;;14.23;;
3095;SDS011;1558;42.700;23.360;2023-02-01T18:20:43;19.63;;;15.33;;
3095;SDS011;1558;42.700;23.360;2023-02-01T18:23:17;26.13;;;18.20;;
3095;SDS011;1558;42.700;23.360;2023-02-01T18:25:47;20.50;;;15.73;;
3095;SDS011;1558;42.700;23.360;2023-02-01T18:28:16;17.17;;;12.10;;
3095;SDS011;1558;42.700;23.360;2023-02-01T18:30:46;16.07;;;11.53;;
3095;SDS011;1558;42.700;23.360;2023-02-01T18:33:17;17.13;;;12.77;;
3095;SDS011;1558;42.700;23.360;2023-02-01T18:35:47;15.30;;;11.27;;
3095;SDS011;1558;42.700;23.360;2023-02-01T18:38:15;13.73;;;10.87;;
3095;SDS011;1558;42.700;23.360;2023-02-01T18:40:46;21.03;;;15.97;;
3095;SDS011;1558;42.700;23.360;2023-02-01T18:43:16;17.10;;;13.30;;
3095;SDS011;1558;42.700;23.360;2023-02-01T18:45:45;19.77;;;12.80;;
3095;SDS011;1558;42.700;23.360;2023-02-01T18:48:14;17.83;;;13.47;;
3095;SDS011;1558;42.700;23.360;2023-02-01T18:50:44;18.17;;;14.13;;
3095;SDS011;1558;42.700;23.360;2023-02-01T18:53:14;17.50;;;14.37;;
3095;SDS011;1558;42.700;23.360;2023-02-01T18:55:45;17.77;;;12.50;;
3095;SDS011;1558;42.700;23.360;2023-02-01T18:58:14;16.03;;;11.47;;
3095;SDS011;1558;42.700;23.360;2023-02-01T19:00:44;19.60;;;13.50;;
3095;SDS011;1558;42.700;23.360;2023-02-01T19:03:13;16.53;;;11.87;;
3095;SDS011;1558;42.700;23.360;2023-02-01T19:05:42;18.57;;;13.50;;
3095;SDS011;1558;42.700;23.360;2023-02-01T19:08:09;18.87;;;13.00;;
3095;SDS011;1558;42.700;23.360;2023-02-01T19:10:40;16.17;;;11.93;;
3095;SDS011;1558;42.700;23.360;2023-02-01T19:13:11;17.47;;;13.17;;
3095;SDS011;1558;42.700;23.360;2023-02-01T19:15:39;14.67;;;12.43;;
3095;SDS011;1558;42.700;23.360;2023-02-01T19:18:08;19.97;;;15.07;;
3095;SDS011;1558;42.700;23.360;2023-02-01T19:20:37;23.53;;;15.03;;
3095;SDS011;1558;42.700;23.360;2023-02-01T19:23:10;24.90;;;17.47;;
3095;SDS011;1558;42.700;23.360;2023-02-01T19:25:43;24.13;;;17.30;;
3095;SDS011;1558;42.700;23.360;2023-02-01T19:28:12;27.83;;;18.80;;
3095;SDS011;1558;42.700;23.360;2023-02-01T19:30:40;25.63;;;18.83;;
3095;SDS011;1558;42.700;23.360;2023-02-01T19:33:08;26.33;;;19.60;;
3095;SDS011;1558;42.700;23.360;2023-02-01T19:35:36;26.37;;;19.60;;
3095;SDS011;1558;42.700;23.360;2023-02-01T19:38:04;26.00;;;19.73;;
3095;SDS011;1558;42.700;23.360;2023-02-01T19:40:37;28.07;;;20.33;;
3095;SDS011;1558;42.700;23.360;2023-02-01T19:43:06;27.10;;;20.17;;
3095;SDS011;1558;42.700;23.360;2023-02-01T19:45:34;28.30;;;20.83;;
3095;SDS011;1558;42.700;23.360;2023-02-01T19:48:02;26.43;;;17.63;;
3095;SDS011;1558;42.700;23.360;2023-02-01T19:50:33;30.80;;;21.10;;
3095;SDS011;1558;42.700;23.360;2023-02-01T19:53:00;26.67;;;20.17;;
3095;SDS011;1558;42.700;23.360;2023-02-01T19:55:28;23.70;;;16.40;;
3095;SDS011;1558;42.700;23.360;2023-02-01T19:57:56;26.80;;;17.37;;
3095;SDS011;1558;42.700;23.360;2023-02-01T20:00:26;33.17;;;21.63;;
3095;SDS011;1558;42.700;23.360;2023-02-01T20:02:54;28.03;;;19.77;;
3095;SDS011;1558;42.700;23.360;2023-02-01T20:05:22;30.70;;;20.63;;
3095;SDS011;1558;42.700;23.360;2023-02-01T20:07:51;29.60;;;20.07;;
3095;SDS011;1558;42.700;23.360;2023-02-01T20:10:18;26.00;;;17.93;;
3095;SDS011;1558;42.700;23.360;2023-02-01T20:12:47;20.70;;;15.40;;
3095;SDS011;1558;42.700;23.360;2023-02-01T20:15:15;22.70;;;15.63;;
3095;SDS011;1558;42.700;23.360;2023-02-01T20:17:45;21.37;;;14.93;;
3095;SDS011;1558;42.700;23.360;2023-02-01T20:20:13;18.87;;;14.73;;
3095;SDS011;1558;42.700;23.360;2023-02-01T20:22:41;19.23;;;13.27;;
3095;SDS011;1558;42.700;23.360;2023-02-01T20:25:12;20.37;;;14.17;;
3095;SDS011;1558;42.700;23.360;2023-02-01T20:27:40;18.77;;;14.10;;
3095;SDS011;1558;42.700;23.360;2023-02-01T20:30:08;20.90;;;15.23;;
3095;SDS011;1558;42.700;23.360;2023-02-01T20:32:37;20.97;;;14.30;;
3095;SDS011;1558;42.700;23.360;2023-02-01T20:35:06;15.77;;;13.23;;
3095;SDS011;1558;42.700;23.360;2023-02-01T20:37:35;18.43;;;13.07;;
3095;SDS011;1558;42.700;23.360;2023-02-01T20:40:03;20.23;;;12.73;;
3095;SDS011;1558;42.700;23.360;2023-02-01T20:42:32;16.20;;;12.30;;
3095;SDS011;1558;42.700;23.360;2023-02-01T20:45:01;16.93;;;11.70;;
3095;SDS011;1558;42.700;23.360;2023-02-01T20:47:30;18.23;;;13.20;;
3095;SDS011;1558;42.700;23.360;2023-02-01T20:49:57;15.77;;;11.83;;
3095;SDS011;1558;42.700;23.360;2023-02-01T20:52:27;23.53;;;16.50;;
3095;SDS011;1558;42.700;23.360;2023-02-01T20:54:55;23.53;;;15.43;;
3095;SDS011;1558;42.700;23.360;2023-02-01T20:57:23;19.90;;;14.93;;
3095;SDS011;1558;42.700;23.360;2023-02-01T20:59:51;25.50;;;16.80;;
3095;SDS011;1558;42.700;23.360;2023-02-01T21:02:20;33.20;;;24.10;;
3095;SDS011;1558;42.700;23.360;2023-02-01T21:04:48;31.37;;;23.37;;
3095;SDS011;1558;42.700;23.360;2023-02-01T21:07:16;30.23;;;20.50;;
3095;SDS011;1558;42.700;23.360;2023-02-01T21:09:45;29.03;;;22.80;;
3095;SDS011;1558;42.700;23.360;2023-02-01T21:12:13;24.77;;;21.30;;
3095;SDS011;1558;42.700;23.360;2023-02-01T21:14:41;27.93;;;21.30;;
3095;SDS011;1558;42.700;23.360;2023-02-01T21:17:09;21.43;;;17.97;;
3095;SDS011;1558;42.700;23.360;2023-02-01T21:19:37;24.60;;;19.67;;
3095;SDS011;1558;42.700;23.360;2023-02-01T21:22:09;20.77;;;16.43;;
3095;SDS011;1558;42.700;23.360;2023-02-01T21:24:37;21.73;;;17.17;;
3095;SDS011;1558;42.700;23.360;2023-02-01T21:27:07;22.70;;;17.77;;
3095;SDS011;1558;42.700;23.360;2023-02-01T21:29:36;17.97;;;14.87;;
3095;SDS011;1558;42.700;23.360;2023-02-01T21:32:04;22.90;;;17.77;;
3095;SDS011;1558;42.700;23.360;2023-02-01T21:34:33;25.60;;;19.97;;
3095;SDS011;1558;42.700;23.360;2023-02-01T21:37:02;24.00;;;16.47;;
3095;SDS011;1558;42.700;23.360;2023-02-01T21:39:30;26.87;;;20.57;;
3095;SDS011;1558;42.700;23.360;2023-02-01T21:41:58;18.40;;;14.10;;
3095;SDS011;1558;42.700;23.360;2023-02-01T21:44:44;22.53;;;17.00;;
3095;SDS011;1558;42.700;23.360;2023-02-01T21:47:14;17.50;;;14.43;;
3095;SDS011;1558;42.700;23.360;2023-02-01T21:49:43;22.47;;;16.40;;
3095;SDS011;1558;42.700;23.360;2023-02-01T21:52:14;17.03;;;14.30;;
3095;SDS011;1558;42.700;23.360;2023-02-01T21:54:42;17.67;;;12.33;;
3095;SDS011;1558;42.700;23.360;2023-02-01T21:57:10;17.23;;;13.30;;
3095;SDS011;1558;42.700;23.360;2023-02-01T21:59:39;17.57;;;12.40;;
3095;SDS011;1558;42.700;23.360;2023-02-01T22:02:11;18.57;;;14.17;;
3095;SDS011;1558;42.700;23.360;2023-02-01T22:04:41;16.50;;;12.77;;
3095;SDS011;1558;42.700;23.360;2023-02-01T22:07:10;15.53;;;11.30;;
3095;SDS011;1558;42.700;23.360;2023-02-01T22:09:38;19.97;;;13.87;;
3095;SDS011;1558;42.700;23.360;2023-02-01T22:12:07;21.73;;;15.70;;
3095;SDS011;1558;42.700;23.360;2023-02-01T22:14:38;15.63;;;11.30;;
3095;SDS011;1558;42.700;23.360;2023-02-01T22:17:11;15.57;;;12.87;;
3095;SDS011;1558;42.700;23.360;2023-02-01T22:19:39;15.00;;;12.90;;
3095;SDS011;1558;42.700;23.360;2023-02-01T22:22:08;15.80;;;12.10;;
3095;SDS011;1558;42.700;23.360;2023-02-01T22:24:37;14.83;;;10.93;;
3095;SDS011;1558;42.700;23.360;2023-02-01T22:27:05;15.30;;;11.47;;
3095;SDS011;1558;42.700;23.360;2023-02-01T22:29:40;13.17;;;11.37;;
3095;SDS011;1558;42.700;23.360;2023-02-01T22:32:09;17.77;;;13.43;;
3095;SDS011;1558;42.700;23.360;2023-02-01T22:34:39;15.47;;;11.80;;
3095;SDS011;1558;42.700;23.360;2023-02-01T22:37:07;13.53;;;11.27;;
3095;SDS011;1558;42.700;23.360;2023-02-01T22:39:37;17.43;;;11.73;;
3095;SDS011;1558;42.700;23.360;2023-02-01T22:42:05;16.00;;;12.63;;
3095;SDS011;1558;42.700;23.360;2023-02-01T22:44:33;19.27;;;14.37;;
3095;SDS011;1558;42.700;23.360;2023-02-01T22:47:01;18.77;;;14.63;;
3095;SDS011;1558;42.700;23.360;2023-02-01T22:49:30;23.00;;;16.23;;
3095;SDS011;1558;42.700;23.360;2023-02-01T22:52:00;24.83;;;19.57;;
3095;SDS011;1558;42.700;23.360;2023-02-01T22:54:28;20.27;;;16.43;;
3095;SDS011;1558;42.700;23.360;2023-02-01T22:56:56;19.20;;;15.13;;
3095;SDS011;1558;42.700;23.360;2023-02-01T22:59:25;16.53;;;14.60;;
3095;SDS011;1558;42.700;23.360;2023-02-01T23:01:53;21.77;;;14.10;;
3095;SDS011;1558;42.700;23.360;2023-02-01T23:04:21;19.73;;;13.70;;
3095;SDS011;1558;42.700;23.360;2023-02-01T23:06:50;17.07;;;13.43;;
3095;SDS011;1558;42.700;23.360;2023-02-01T23:09:20;21.57;;;14.10;;
3095;SDS011;1558;42.700;23.360;2023-02-01T23:11:50;20.97;;;14.00;;
3095;SDS011;1558;42.700;23.360;2023-02-01T23:14:18;14.27;;;11.63;;
3095;SDS011;1558;42.700;23.360;2023-02-01T23:16:47;14.33;;;10.83;;
3095;SDS011;1558;42.700;23.360;2023-02-01T23:19:16;13.20;;;10.53;;
3095;SDS011;1558;42.700;23.360;2023-02-01T23:21:45;10.03;;;6.53;;
3095;SDS011;1558;42.700;23.360;2023-02-01T23:24:15;7.00;;;5.70;;
3095;SDS011;1558;42.700;23.360;2023-02-01T23:26:43;5.93;;;4.40;;
3095;SDS011;1558;42.700;23.360;2023-02-01T23:29:14;4.83;;;4.43;;
3095;SDS011;1558;42.700;23.360;2023-02-01T23:31:45;5.97;;;3.70;;
3095;SDS011;1558;42.700;23.360;2023-02-01T23:34:13;5.33;;;3.50;;
3095;SDS011;1558;42.700;23.360;2023-02-01T23:36:41;5.90;;;4.37;;
3095;SDS011;1558;42.700;23.360;2023-02-01T23:39:09;7.93;;;4.67;;
3095;SDS011;1558;42.700;23.360;2023-02-01T23:41:38;7.77;;;5.37;;
3095;SDS011;1558;42.700;23.360;2023-02-01T23:44:06;5.30;;;4.13;;
3095;SDS011;1558;42.700;23.360;2023-02-01T23:46:35;8.73;;;5.17;;
3095;SDS011;1558;42.700;23.360;2023-02-01T23:49:05;5.50;;;4.57;;
3095;SDS011;1558;42.700;23.360;2023-02-01T23:51:34;7.07;;;5.00;;
3095;SDS011;1558;42.700;23.360;2023-02-01T23:54:03;7.20;;;4.77;;
3095;SDS011;1558;42.700;23.360;2023-02-01T23:56:32;6.57;;;4.57;;
3095;SDS011;1558;42.700;23.360;2023-02-01T23:59:04;6.63;;;4.87;;
